Time,TemperatureF,DewpointF,PressureIn,WindDirection,WindDirectionDegrees,WindSpeedMPH,WindSpeedGustMPH,Humidity,HourlyPrecipIn,Conditions,Clouds,dailyrainin,SolarRadiationWatts/m^2,SoftwareType,DateUTC
2013-11-10 00:02:00,36.0,36.0,-100.00,NE,45,6.0,6.0,100,0.03,,,0.05,0.800000,,2013-11-10 09:02:00,
2013-11-10 00:12:00,36.0,36.0,-100.00,NE,45,6.0,6.0,100,0.03,,,0.05,0.800000,,2013-11-10 09:12:00,
2013-11-10 00:21:00,36.0,36.0,-100.00,NE,45,6.0,6.0,100,0.03,,,0.05,0.800000,,2013-11-10 09:21:00,
2013-11-10 00:53:00,36.0,36.0,-100.00,NNE,25,4.0,7.0,100,0.03,,,-99.99,0.800000,,2013-11-10 09:53:00,
2013-11-10 01:03:00,36.0,36.0,-100.00,NNE,25,4.0,7.0,100,0.03,,,-99.99,0.800000,,2013-11-10 10:03:00,
2013-11-10 01:13:00,36.0,36.0,-100.00,NNE,25,4.0,7.0,100,0.03,,,-99.99,0.800000,,2013-11-10 10:13:00,
2013-11-10 01:22:00,36.0,36.0,-100.00,NNE,25,4.0,7.0,100,0.03,,,-99.99,0.800000,,2013-11-10 10:22:00,
2013-11-10 01:53:00,36.0,36.0,-100.00,North,9,3.0,5.0,100,0.02,,,0.10,0.800000,,2013-11-10 10:53:00,
2013-11-10 02:02:00,36.0,36.0,-100.00,North,9,3.0,5.0,100,0.02,,,0.10,0.800000,,2013-11-10 11:02:00,
2013-11-10 02:12:00,36.0,36.0,-100.00,North,9,3.0,5.0,100,0.02,,,0.10,0.800000,,2013-11-10 11:12:00,
2013-11-10 02:21:00,36.0,36.0,-100.00,North,9,3.0,5.0,100,0.02,,,0.10,0.800000,,2013-11-10 11:21:00,
2013-11-10 02:52:00,37.0,37.0,-100.00,NE,50,3.0,4.0,100,0.05,,,0.15,0.800000,,2013-11-10 11:52:00,
2013-11-10 03:02:00,37.0,37.0,-100.00,NE,50,3.0,4.0,100,0.05,,,0.15,0.800000,,2013-11-10 12:02:00,
2013-11-10 03:12:00,37.0,37.0,-100.00,NE,50,3.0,4.0,100,0.05,,,0.15,0.800000,,2013-11-10 12:12:00,
2013-11-10 03:21:00,37.0,37.0,-100.00,NE,50,3.0,4.0,100,0.05,,,0.15,0.800000,,2013-11-10 12:21:00,
2013-11-10 06:11:00,36.0,36.0,-100.00,ENE,71,2.0,4.0,100,-99.99,,,0.24,0.800000,,2013-11-10 15:11:00,
2013-11-10 06:22:00,36.0,36.0,-100.00,ENE,71,2.0,4.0,100,-99.99,,,0.24,0.800000,,2013-11-10 15:22:00,
2013-11-10 06:53:00,36.0,36.0,-100.00,NNE,26,5.0,5.0,100,0.04,,,0.28,0.800000,,2013-11-10 15:53:00,
2013-11-10 07:03:00,36.0,36.0,-100.00,NNE,26,5.0,5.0,100,0.04,,,0.28,0.800000,,2013-11-10 16:03:00,
2013-11-10 07:12:00,36.0,36.0,-100.00,NNE,26,5.0,5.0,100,0.04,,,0.28,0.800000,,2013-11-10 16:12:00,
2013-11-10 07:23:00,36.0,36.0,-100.00,NNE,26,5.0,5.0,100,0.04,,,0.28,0.800000,,2013-11-10 16:23:00,
2013-11-10 07:53:00,35.0,35.0,-100.00,NNE,19,5.0,7.0,99,0.07,,,0.35,0.800000,,2013-11-10 16:53:00,
2013-11-10 08:02:00,35.0,35.0,-100.00,NNE,19,5.0,7.0,99,0.07,,,0.35,0.800000,,2013-11-10 17:02:00,
2013-11-10 08:12:00,35.0,35.0,-100.00,NNE,19,5.0,7.0,99,0.07,,,0.35,0.800000,,2013-11-10 17:12:00,
2013-11-10 08:23:00,35.0,35.0,-100.00,NNE,19,5.0,7.0,99,0.07,,,0.35,0.800000,,2013-11-10 17:23:00,
2013-11-10 08:52:00,35.0,35.0,-100.00,ENE,57,5.0,8.0,98,0.06,,,0.41,0.800000,,2013-11-10 17:52:00,
2013-11-10 09:02:00,35.0,35.0,-100.00,ENE,57,5.0,8.0,98,0.06,,,0.41,0.800000,,2013-11-10 18:02:00,
2013-11-10 09:12:00,35.0,35.0,-100.00,ENE,57,5.0,8.0,98,0.06,,,0.41,0.800000,,2013-11-10 18:12:00,
2013-11-10 09:23:00,35.0,35.0,-100.00,ENE,57,5.0,8.0,98,0.06,,,0.41,0.800000,,2013-11-10 18:23:00,
2013-11-10 09:52:00,34.0,34.0,-100.00,North,351,2.0,6.0,98,0.09,,,0.50,1.700000,,2013-11-10 18:52:00,
2013-11-10 10:01:00,34.0,34.0,-100.00,North,351,2.0,6.0,98,0.09,,,0.50,1.700000,,2013-11-10 19:01:00,
2013-11-10 10:11:00,34.0,34.0,-100.00,North,351,2.0,6.0,98,0.09,,,0.50,1.700000,,2013-11-10 19:11:00,
2013-11-10 10:21:00,34.0,34.0,-100.00,North,351,2.0,6.0,98,0.09,,,0.50,1.700000,,2013-11-10 19:21:00,
2013-11-10 10:52:00,33.0,33.0,-100.00,NNE,24,5.0,6.0,100,0.09,,,0.59,10.500000,,2013-11-10 19:52:00,
2013-11-10 11:01:00,33.0,33.0,-100.00,NNE,24,5.0,6.0,100,0.09,,,0.59,10.500000,,2013-11-10 20:01:00,
2013-11-10 11:11:00,33.0,33.0,-100.00,NNE,24,5.0,6.0,100,0.09,,,0.59,10.500000,,2013-11-10 20:11:00,
2013-11-10 11:21:00,33.0,33.0,-100.00,NNE,24,5.0,6.0,100,0.09,,,0.59,10.500000,,2013-11-10 20:21:00,
2013-11-10 11:52:00,34.0,34.0,-100.00,NNE,25,3.0,7.0,99,0.07,,,0.66,20.400000,,2013-11-10 20:52:00,
2013-11-10 12:02:00,34.0,34.0,-100.00,NNE,25,3.0,7.0,99,0.07,,,0.66,20.400000,,2013-11-10 21:02:00,
2013-11-10 12:11:00,34.0,34.0,-100.00,NNE,25,3.0,7.0,99,0.07,,,0.66,20.400000,,2013-11-10 21:11:00,
2013-11-10 12:22:00,34.0,34.0,-100.00,NNE,25,3.0,7.0,99,0.07,,,0.66,20.400000,,2013-11-10 21:22:00,
2013-11-10 12:55:00,35.0,34.0,-100.00,ENE,68,4.0,5.0,99,0.07,,,0.73,24.500000,,2013-11-10 21:55:00,
2013-11-10 13:04:00,35.0,34.0,-100.00,ENE,68,4.0,5.0,99,0.07,,,0.73,24.500000,,2013-11-10 22:04:00,
2013-11-10 13:13:00,35.0,34.0,-100.00,ENE,68,4.0,5.0,99,0.07,,,0.73,24.500000,,2013-11-10 22:13:00,
2013-11-10 13:23:00,35.0,34.0,-100.00,ENE,68,4.0,5.0,99,0.07,,,0.73,24.500000,,2013-11-10 22:23:00,
2013-11-10 13:54:00,35.0,35.0,-100.00,NE,54,3.0,6.0,100,0.07,,,-99.99,24.600000,,2013-11-10 22:54:00,
2013-11-10 14:03:00,35.0,35.0,-100.00,NE,54,3.0,6.0,100,0.07,,,-99.99,24.600000,,2013-11-10 23:03:00,
2013-11-10 14:11:00,35.0,35.0,-100.00,NE,54,3.0,6.0,100,0.07,,,-99.99,24.600000,,2013-11-10 23:11:00,
2013-11-10 14:22:00,35.0,35.0,-100.00,NE,54,3.0,6.0,100,0.07,,,-99.99,24.600000,,2013-11-10 23:22:00,
2013-11-10 14:53:00,35.0,35.0,-100.00,NNE,23,3.0,4.0,99,0.07,,,0.87,22.100000,,2013-11-10 23:53:00,
2013-11-10 15:02:00,35.0,35.0,-100.00,NNE,23,3.0,4.0,99,0.07,,,0.87,22.100000,,2013-11-11 00:02:00,
2013-11-10 15:11:00,35.0,35.0,-100.00,NNE,23,3.0,4.0,99,0.07,,,0.87,22.100000,,2013-11-11 00:11:00,
2013-11-10 15:22:00,35.0,35.0,-100.00,NNE,23,3.0,4.0,99,0.07,,,0.87,22.100000,,2013-11-11 00:22:00,
2013-11-10 15:52:00,36.0,35.0,-100.00,NNE,22,5.0,5.0,97,0.06,,,0.93,17.400000,,2013-11-11 00:52:00,
2013-11-10 16:02:00,36.0,35.0,-100.00,NNE,22,5.0,5.0,97,0.06,,,0.93,17.400000,,2013-11-11 01:02:00,
2013-11-10 16:11:00,36.0,35.0,-100.00,NNE,22,5.0,5.0,97,0.06,,,0.93,17.400000,,2013-11-11 01:11:00,
2013-11-10 16:22:00,36.0,35.0,-100.00,NNE,22,5.0,5.0,97,0.06,,,0.93,17.400000,,2013-11-11 01:22:00,
2013-11-10 16:52:00,37.0,35.0,-100.00,NE,47,5.0,6.0,94,0.04,,,0.97,8.900000,,2013-11-11 01:52:00,
2013-11-10 17:02:00,37.0,35.0,-100.00,NE,47,5.0,6.0,94,0.04,,,0.97,8.900000,,2013-11-11 02:02:00,
2013-11-10 17:11:00,37.0,35.0,-100.00,NE,47,5.0,6.0,94,0.04,,,0.97,8.900000,,2013-11-11 02:11:00,
2013-11-10 17:21:00,37.0,35.0,-100.00,NE,47,5.0,6.0,94,0.04,,,0.97,8.900000,,2013-11-11 02:21:00,
2013-11-10 17:52:00,37.0,36.0,-100.00,East,100,2.0,6.0,95,0.03,,,1.00,1.500000,,2013-11-11 02:52:00,
2013-11-10 18:02:00,37.0,36.0,-100.00,East,100,2.0,6.0,95,0.03,,,1.00,1.500000,,2013-11-11 03:02:00,
2013-11-10 18:11:00,37.0,36.0,-100.00,East,100,2.0,6.0,95,0.03,,,1.00,1.500000,,2013-11-11 03:11:00,
2013-11-10 18:21:00,37.0,36.0,-100.00,East,100,2.0,6.0,95,0.03,,,1.00,1.500000,,2013-11-11 03:21:00,
2013-11-10 18:55:00,37.0,36.0,-100.00,North,356,2.0,3.0,96,0.01,,,1.01,0.800000,,2013-11-11 03:55:00,
2013-11-10 19:04:00,37.0,36.0,-100.00,North,356,2.0,3.0,96,0.01,,,1.01,0.800000,,2013-11-11 04:04:00,
2013-11-10 19:14:00,37.0,36.0,-100.00,North,356,2.0,3.0,96,0.01,,,1.01,0.800000,,2013-11-11 04:14:00,
2013-11-10 19:24:00,37.0,36.0,-100.00,North,356,2.0,3.0,96,0.01,,,1.01,0.800000,,2013-11-11 04:24:00,
2013-11-10 19:53:00,37.0,36.0,-100.00,NW,309,0.0,2.0,95,0.01,,,-99.99,0.800000,,2013-11-11 04:53:00,
2013-11-10 20:03:00,37.0,36.0,-100.00,NW,309,0.0,2.0,95,0.01,,,-99.99,0.800000,,2013-11-11 05:03:00,
2013-11-10 20:13:00,37.0,36.0,-100.00,NW,309,0.0,2.0,95,0.01,,,-99.99,0.800000,,2013-11-11 05:13:00,
2013-11-10 20:23:00,37.0,36.0,-100.00,NW,309,0.0,2.0,95,0.01,,,-99.99,0.800000,,2013-11-11 05:23:00,
2013-11-10 20:54:00,37.0,37.0,-100.00,SW,234,2.0,2.0,97,0.01,,,1.03,0.800000,,2013-11-11 05:54:00,
2013-11-10 21:03:00,37.0,37.0,-100.00,SW,234,2.0,2.0,97,0.01,,,1.03,0.800000,,2013-11-11 06:03:00,
2013-11-10 21:12:00,37.0,37.0,-100.00,SW,234,2.0,2.0,97,0.01,,,1.03,0.800000,,2013-11-11 06:12:00,
2013-11-10 21:21:00,37.0,37.0,-100.00,SW,234,2.0,2.0,97,0.01,,,1.03,0.800000,,2013-11-11 06:21:00,
2013-11-10 21:52:00,38.0,37.0,-100.00,SSE,154,1.0,4.0,97,0.01,,,-99.99,0.800000,,2013-11-11 06:52:00,
2013-11-10 22:02:00,38.0,37.0,-100.00,SSE,154,1.0,4.0,97,0.01,,,-99.99,0.800000,,2013-11-11 07:02:00,
2013-11-10 22:12:00,38.0,37.0,-100.00,SSE,154,1.0,4.0,97,0.01,,,-99.99,0.800000,,2013-11-11 07:12:00,
2013-11-10 22:21:00,38.0,37.0,-100.00,SSE,154,1.0,4.0,97,0.01,,,-99.99,0.800000,,2013-11-11 07:21:00,
2013-11-10 22:52:00,38.0,37.0,-100.00,ESE,107,2.0,4.0,98,0.01,,,1.03,0.800000,,2013-11-11 07:52:00,
2013-11-10 23:02:00,38.0,37.0,-100.00,ESE,107,2.0,4.0,98,0.01,,,1.03,0.800000,,2013-11-11 08:02:00,
2013-11-10 23:11:00,38.0,37.0,-100.00,ESE,107,2.0,4.0,98,0.01,,,1.03,0.800000,,2013-11-11 08:11:00,
2013-11-10 23:22:00,38.0,37.0,-100.00,ESE,107,2.0,4.0,98,0.01,,,1.03,0.800000,,2013-11-11 08:22:00,
2013-11-10 23:52:00,38.0,37.0,-100.00,North,9,0.0,3.0,97,0.00,,,1.00,0.800000,,2013-11-11 08:52:00,